KANQ/ANQ METAR and TAF weather

Enter ICAO airport designator
Station Type Date Time Source
KANQ METAR 2019/02/23 16:55 UTC NOAA

KANQ 231655Z AUTO 11012G18KT 9SM SCT020 BKN048 BKN090 03/M02 A3001 RMK AO2


Station Type Date Time Source
KANQ Decoded METAR 2019/02/23 16:55 UTC NOAA

Station name not available
Feb 23, 2019 - 11:55 AM EST / 2019.02.23 1655 UTC
Wind: from the ESE (110 degrees) at 14 MPH (12 KT) gusting to 21 MPH (18 KT):0
Visibility: 9 mile(s):0
Sky conditions: mostly cloudy
Temperature: 37 F (3 C)
Dew Point: 28 F (-2 C)
Relative Humidity: 69%
Pressure (altimeter): 30.01 in. Hg (1016 hPa)
ob: KANQ 231655Z AUTO 11012G18KT 9SM SCT020 BKN048 BKN090 03/M02 A3001 RMK AO2
cycle: 17

Station Type Date Time Source
KANQ TAF UTC NOAA

Error!


Example: see airport list